sensor_id;sensor_type;location;lat;lon;timestamp;P1;durP1;ratioP1;P2;durP2;ratioP2
44722;SDS011;30451;48.638;10.624;2024-01-07T00:01:57;15.30;;;5.50;;
44722;SDS011;30451;48.638;10.624;2024-01-07T00:04:23;11.48;;;4.93;;
44722;SDS011;30451;48.638;10.624;2024-01-07T00:06:48;12.57;;;5.07;;
44722;SDS011;30451;48.638;10.624;2024-01-07T00:09:15;11.25;;;4.85;;
44722;SDS011;30451;48.638;10.624;2024-01-07T00:11:41;12.38;;;5.05;;
44722;SDS011;30451;48.638;10.624;2024-01-07T00:14:07;11.48;;;4.80;;
44722;SDS011;30451;48.638;10.624;2024-01-07T00:16:33;9.93;;;4.95;;
44722;SDS011;30451;48.638;10.624;2024-01-07T00:18:59;10.27;;;4.75;;
44722;SDS011;30451;48.638;10.624;2024-01-07T00:21:24;14.32;;;4.85;;
44722;SDS011;30451;48.638;10.624;2024-01-07T00:23:50;12.77;;;5.10;;
44722;SDS011;30451;48.638;10.624;2024-01-07T00:26:16;11.38;;;4.85;;
44722;SDS011;30451;48.638;10.624;2024-01-07T00:28:41;9.95;;;4.47;;
44722;SDS011;30451;48.638;10.624;2024-01-07T00:31:07;10.55;;;4.63;;
44722;SDS011;30451;48.638;10.624;2024-01-07T00:33:34;10.07;;;4.63;;
44722;SDS011;30451;48.638;10.624;2024-01-07T00:36:00;9.70;;;4.38;;
44722;SDS011;30451;48.638;10.624;2024-01-07T00:38:26;9.27;;;3.90;;
44722;SDS011;30451;48.638;10.624;2024-01-07T00:40:51;11.57;;;4.38;;
44722;SDS011;30451;48.638;10.624;2024-01-07T00:43:17;9.30;;;4.35;;
44722;SDS011;30451;48.638;10.624;2024-01-07T00:45:43;9.55;;;4.47;;
44722;SDS011;30451;48.638;10.624;2024-01-07T00:48:09;10.65;;;4.20;;
44722;SDS011;30451;48.638;10.624;2024-01-07T00:50:35;10.48;;;4.47;;
44722;SDS011;30451;48.638;10.624;2024-01-07T00:53:00;10.75;;;4.25;;
44722;SDS011;30451;48.638;10.624;2024-01-07T00:55:26;9.50;;;3.95;;
44722;SDS011;30451;48.638;10.624;2024-01-07T00:57:51;9.98;;;4.47;;
44722;SDS011;30451;48.638;10.624;2024-01-07T01:00:17;10.10;;;4.35;;
44722;SDS011;30451;48.638;10.624;2024-01-07T01:02:43;10.63;;;4.38;;
44722;SDS011;30451;48.638;10.624;2024-01-07T01:05:09;10.57;;;4.32;;
44722;SDS011;30451;48.638;10.624;2024-01-07T01:07:34;8.45;;;4.18;;
44722;SDS011;30451;48.638;10.624;2024-01-07T01:10:00;8.98;;;3.92;;
44722;SDS011;30451;48.638;10.624;2024-01-07T01:12:26;9.55;;;3.80;;
44722;SDS011;30451;48.638;10.624;2024-01-07T01:14:51;8.70;;;4.20;;
44722;SDS011;30451;48.638;10.624;2024-01-07T01:17:17;11.45;;;4.25;;
44722;SDS011;30451;48.638;10.624;2024-01-07T01:19:42;9.77;;;3.70;;
44722;SDS011;30451;48.638;10.624;2024-01-07T01:22:08;9.02;;;3.85;;
44722;SDS011;30451;48.638;10.624;2024-01-07T01:24:34;8.93;;;3.65;;
44722;SDS011;30451;48.638;10.624;2024-01-07T01:26:59;8.38;;;3.55;;
44722;SDS011;30451;48.638;10.624;2024-01-07T01:29:25;6.72;;;3.25;;
44722;SDS011;30451;48.638;10.624;2024-01-07T01:31:50;8.95;;;3.92;;
44722;SDS011;30451;48.638;10.624;2024-01-07T01:34:16;7.15;;;3.47;;
44722;SDS011;30451;48.638;10.624;2024-01-07T01:36:42;7.93;;;3.30;;
44722;SDS011;30451;48.638;10.624;2024-01-07T01:39:07;7.30;;;3.42;;
44722;SDS011;30451;48.638;10.624;2024-01-07T01:41:33;7.47;;;3.65;;
44722;SDS011;30451;48.638;10.624;2024-01-07T01:43:59;7.82;;;3.38;;
44722;SDS011;30451;48.638;10.624;2024-01-07T01:46:26;7.63;;;3.63;;
44722;SDS011;30451;48.638;10.624;2024-01-07T01:48:53;6.53;;;3.17;;
44722;SDS011;30451;48.638;10.624;2024-01-07T01:51:19;6.88;;;3.38;;
44722;SDS011;30451;48.638;10.624;2024-01-07T01:53:46;6.55;;;3.15;;
44722;SDS011;30451;48.638;10.624;2024-01-07T01:56:14;9.15;;;3.75;;
44722;SDS011;30451;48.638;10.624;2024-01-07T01:58:43;6.22;;;3.00;;
44722;SDS011;30451;48.638;10.624;2024-01-07T02:01:09;6.43;;;3.00;;
44722;SDS011;30451;48.638;10.624;2024-01-07T02:03:35;6.72;;;3.50;;
44722;SDS011;30451;48.638;10.624;2024-01-07T02:06:00;7.97;;;3.60;;
44722;SDS011;30451;48.638;10.624;2024-01-07T02:08:26;7.75;;;3.70;;
44722;SDS011;30451;48.638;10.624;2024-01-07T02:10:52;7.15;;;3.05;;
44722;SDS011;30451;48.638;10.624;2024-01-07T02:13:18;6.95;;;3.17;;
44722;SDS011;30451;48.638;10.624;2024-01-07T02:15:44;6.95;;;3.60;;
44722;SDS011;30451;48.638;10.624;2024-01-07T02:18:09;6.82;;;3.55;;
44722;SDS011;30451;48.638;10.624;2024-01-07T02:20:35;6.28;;;3.10;;
44722;SDS011;30451;48.638;10.624;2024-01-07T02:23:01;4.97;;;3.13;;
44722;SDS011;30451;48.638;10.624;2024-01-07T02:25:27;5.30;;;2.53;;
44722;SDS011;30451;48.638;10.624;2024-01-07T02:27:53;6.45;;;2.80;;
44722;SDS011;30451;48.638;10.624;2024-01-07T02:30:18;5.57;;;2.95;;
44722;SDS011;30451;48.638;10.624;2024-01-07T02:32:44;6.95;;;3.00;;
44722;SDS011;30451;48.638;10.624;2024-01-07T02:35:10;6.60;;;2.60;;
44722;SDS011;30451;48.638;10.624;2024-01-07T02:37:35;6.45;;;3.13;;
44722;SDS011;30451;48.638;10.624;2024-01-07T02:40:01;6.95;;;3.03;;
44722;SDS011;30451;48.638;10.624;2024-01-07T02:42:27;7.00;;;3.15;;
44722;SDS011;30451;48.638;10.624;2024-01-07T02:44:52;6.53;;;3.08;;
44722;SDS011;30451;48.638;10.624;2024-01-07T02:47:18;6.03;;;2.65;;
44722;SDS011;30451;48.638;10.624;2024-01-07T02:49:43;5.65;;;2.63;;
44722;SDS011;30451;48.638;10.624;2024-01-07T02:52:09;6.47;;;2.90;;
44722;SDS011;30451;48.638;10.624;2024-01-07T02:54:35;6.88;;;2.88;;
44722;SDS011;30451;48.638;10.624;2024-01-07T02:57:00;4.70;;;2.30;;
44722;SDS011;30451;48.638;10.624;2024-01-07T02:59:26;5.88;;;2.67;;
44722;SDS011;30451;48.638;10.624;2024-01-07T03:01:52;6.63;;;2.85;;
44722;SDS011;30451;48.638;10.624;2024-01-07T03:04:18;6.45;;;2.88;;
44722;SDS011;30451;48.638;10.624;2024-01-07T03:06:43;5.65;;;2.50;;
44722;SDS011;30451;48.638;10.624;2024-01-07T03:09:09;4.85;;;2.60;;
44722;SDS011;30451;48.638;10.624;2024-01-07T03:11:44;6.05;;;2.70;;
44722;SDS011;30451;48.638;10.624;2024-01-07T03:14:10;5.10;;;2.40;;
44722;SDS011;30451;48.638;10.624;2024-01-07T03:16:35;5.20;;;2.55;;
44722;SDS011;30451;48.638;10.624;2024-01-07T03:19:01;6.53;;;3.00;;
44722;SDS011;30451;48.638;10.624;2024-01-07T03:21:27;5.63;;;2.63;;
44722;SDS011;30451;48.638;10.624;2024-01-07T03:23:53;5.03;;;2.30;;
44722;SDS011;30451;48.638;10.624;2024-01-07T03:26:19;4.90;;;2.65;;
44722;SDS011;30451;48.638;10.624;2024-01-07T03:28:45;4.65;;;2.50;;
44722;SDS011;30451;48.638;10.624;2024-01-07T03:31:11;4.70;;;2.70;;
44722;SDS011;30451;48.638;10.624;2024-01-07T03:33:39;4.80;;;2.30;;
44722;SDS011;30451;48.638;10.624;2024-01-07T03:36:06;5.07;;;2.53;;
44722;SDS011;30451;48.638;10.624;2024-01-07T03:38:36;5.72;;;2.67;;
44722;SDS011;30451;48.638;10.624;2024-01-07T03:41:07;4.53;;;2.45;;
44722;SDS011;30451;48.638;10.624;2024-01-07T03:43:33;4.70;;;2.15;;
44722;SDS011;30451;48.638;10.624;2024-01-07T03:45:59;5.63;;;2.75;;
44722;SDS011;30451;48.638;10.624;2024-01-07T03:48:25;4.38;;;2.17;;
44722;SDS011;30451;48.638;10.624;2024-01-07T03:50:51;5.57;;;2.47;;
44722;SDS011;30451;48.638;10.624;2024-01-07T03:53:17;3.95;;;2.33;;
44722;SDS011;30451;48.638;10.624;2024-01-07T03:55:42;4.95;;;2.47;;
44722;SDS011;30451;48.638;10.624;2024-01-07T03:58:08;3.75;;;2.08;;
44722;SDS011;30451;48.638;10.624;2024-01-07T04:00:34;4.85;;;2.53;;
44722;SDS011;30451;48.638;10.624;2024-01-07T04:03:00;5.15;;;2.60;;
44722;SDS011;30451;48.638;10.624;2024-01-07T04:05:26;5.55;;;2.50;;
44722;SDS011;30451;48.638;10.624;2024-01-07T04:07:52;4.60;;;2.33;;
44722;SDS011;30451;48.638;10.624;2024-01-07T04:10:20;6.07;;;2.30;;
44722;SDS011;30451;48.638;10.624;2024-01-07T04:12:46;4.22;;;2.15;;
44722;SDS011;30451;48.638;10.624;2024-01-07T04:15:12;5.22;;;2.33;;
44722;SDS011;30451;48.638;10.624;2024-01-07T04:17:38;4.82;;;2.70;;
44722;SDS011;30451;48.638;10.624;2024-01-07T04:20:03;4.60;;;2.40;;
44722;SDS011;30451;48.638;10.624;2024-01-07T04:22:30;4.03;;;2.13;;
44722;SDS011;30451;48.638;10.624;2024-01-07T04:24:56;4.57;;;2.28;;
44722;SDS011;30451;48.638;10.624;2024-01-07T04:27:21;4.05;;;2.28;;
44722;SDS011;30451;48.638;10.624;2024-01-07T04:29:47;4.78;;;2.55;;
44722;SDS011;30451;48.638;10.624;2024-01-07T04:32:13;4.72;;;2.38;;
44722;SDS011;30451;48.638;10.624;2024-01-07T04:34:38;4.30;;;2.30;;
44722;SDS011;30451;48.638;10.624;2024-01-07T04:37:04;4.40;;;2.30;;
44722;SDS011;30451;48.638;10.624;2024-01-07T04:39:29;4.18;;;2.35;;
44722;SDS011;30451;48.638;10.624;2024-01-07T04:41:55;4.18;;;2.35;;
44722;SDS011;30451;48.638;10.624;2024-01-07T04:44:21;4.60;;;2.30;;
44722;SDS011;30451;48.638;10.624;2024-01-07T04:46:47;4.90;;;2.50;;
44722;SDS011;30451;48.638;10.624;2024-01-07T04:49:13;4.93;;;2.03;;
44722;SDS011;30451;48.638;10.624;2024-01-07T04:51:39;5.30;;;2.47;;
44722;SDS011;30451;48.638;10.624;2024-01-07T04:54:04;4.05;;;1.98;;
44722;SDS011;30451;48.638;10.624;2024-01-07T04:56:31;4.00;;;2.00;;
44722;SDS011;30451;48.638;10.624;2024-01-07T04:58:57;3.15;;;1.83;;
44722;SDS011;30451;48.638;10.624;2024-01-07T05:01:22;3.60;;;1.92;;
44722;SDS011;30451;48.638;10.624;2024-01-07T05:03:48;3.35;;;1.83;;
44722;SDS011;30451;48.638;10.624;2024-01-07T05:06:14;3.75;;;1.90;;
44722;SDS011;30451;48.638;10.624;2024-01-07T05:08:40;3.47;;;2.10;;
44722;SDS011;30451;48.638;10.624;2024-01-07T05:11:06;3.28;;;1.80;;
44722;SDS011;30451;48.638;10.624;2024-01-07T05:13:32;2.83;;;1.63;;
44722;SDS011;30451;48.638;10.624;2024-01-07T05:15:58;3.97;;;1.90;;
44722;SDS011;30451;48.638;10.624;2024-01-07T05:18:24;3.42;;;1.67;;
44722;SDS011;30451;48.638;10.624;2024-01-07T05:20:50;3.97;;;2.00;;
44722;SDS011;30451;48.638;10.624;2024-01-07T05:23:16;3.33;;;1.80;;
44722;SDS011;30451;48.638;10.624;2024-01-07T05:25:42;3.42;;;1.98;;
44722;SDS011;30451;48.638;10.624;2024-01-07T05:28:08;3.15;;;1.77;;
44722;SDS011;30451;48.638;10.624;2024-01-07T05:30:34;3.47;;;1.85;;
44722;SDS011;30451;48.638;10.624;2024-01-07T05:32:59;4.00;;;1.98;;
44722;SDS011;30451;48.638;10.624;2024-01-07T05:35:25;4.15;;;1.90;;
44722;SDS011;30451;48.638;10.624;2024-01-07T05:37:51;3.97;;;1.90;;
44722;SDS011;30451;48.638;10.624;2024-01-07T05:40:17;3.63;;;2.00;;
44722;SDS011;30451;48.638;10.624;2024-01-07T05:42:48;4.53;;;2.17;;
44722;SDS011;30451;48.638;10.624;2024-01-07T05:45:13;3.92;;;1.80;;
44722;SDS011;30451;48.638;10.624;2024-01-07T05:47:39;2.92;;;1.58;;
44722;SDS011;30451;48.638;10.624;2024-01-07T05:50:06;3.53;;;1.85;;
44722;SDS011;30451;48.638;10.624;2024-01-07T05:52:32;3.40;;;1.70;;
44722;SDS011;30451;48.638;10.624;2024-01-07T05:54:57;3.17;;;1.80;;
44722;SDS011;30451;48.638;10.624;2024-01-07T05:57:23;2.83;;;1.80;;
44722;SDS011;30451;48.638;10.624;2024-01-07T05:59:49;3.15;;;1.63;;
44722;SDS011;30451;48.638;10.624;2024-01-07T06:02:18;2.80;;;1.50;;
44722;SDS011;30451;48.638;10.624;2024-01-07T06:04:43;2.80;;;1.70;;
44722;SDS011;30451;48.638;10.624;2024-01-07T06:07:09;2.97;;;1.45;;
44722;SDS011;30451;48.638;10.624;2024-01-07T06:09:35;3.60;;;2.10;;
44722;SDS011;30451;48.638;10.624;2024-01-07T06:12:01;2.70;;;1.60;;
44722;SDS011;30451;48.638;10.624;2024-01-07T06:14:26;2.70;;;1.67;;
44722;SDS011;30451;48.638;10.624;2024-01-07T06:16:52;2.63;;;1.40;;
44722;SDS011;30451;48.638;10.624;2024-01-07T06:19:18;2.72;;;1.55;;
44722;SDS011;30451;48.638;10.624;2024-01-07T06:21:44;3.13;;;1.67;;
44722;SDS011;30451;48.638;10.624;2024-01-07T06:24:10;2.90;;;1.60;;
44722;SDS011;30451;48.638;10.624;2024-01-07T06:26:36;3.15;;;1.60;;
44722;SDS011;30451;48.638;10.624;2024-01-07T06:29:01;2.53;;;1.50;;
44722;SDS011;30451;48.638;10.624;2024-01-07T06:31:27;3.17;;;1.63;;
44722;SDS011;30451;48.638;10.624;2024-01-07T06:33:53;2.55;;;1.45;;
44722;SDS011;30451;48.638;10.624;2024-01-07T06:36:21;2.58;;;1.30;;
44722;SDS011;30451;48.638;10.624;2024-01-07T06:38:47;2.45;;;1.40;;
44722;SDS011;30451;48.638;10.624;2024-01-07T06:41:13;2.97;;;1.60;;
44722;SDS011;30451;48.638;10.624;2024-01-07T06:43:39;2.72;;;1.60;;
44722;SDS011;30451;48.638;10.624;2024-01-07T06:46:05;3.10;;;1.50;;
44722;SDS011;30451;48.638;10.624;2024-01-07T06:48:30;2.65;;;1.38;;
44722;SDS011;30451;48.638;10.624;2024-01-07T06:50:56;2.53;;;1.50;;
44722;SDS011;30451;48.638;10.624;2024-01-07T06:53:23;2.90;;;1.60;;
44722;SDS011;30451;48.638;10.624;2024-01-07T06:55:48;3.42;;;1.83;;
44722;SDS011;30451;48.638;10.624;2024-01-07T06:58:14;2.38;;;1.40;;
44722;SDS011;30451;48.638;10.624;2024-01-07T07:00:40;2.60;;;1.40;;
44722;SDS011;30451;48.638;10.624;2024-01-07T07:03:05;2.40;;;1.40;;
44722;SDS011;30451;48.638;10.624;2024-01-07T07:05:31;2.75;;;1.30;;
44722;SDS011;30451;48.638;10.624;2024-01-07T07:07:57;2.22;;;1.30;;
44722;SDS011;30451;48.638;10.624;2024-01-07T07:10:23;2.05;;;1.20;;
44722;SDS011;30451;48.638;10.624;2024-01-07T07:12:49;2.25;;;1.40;;
44722;SDS011;30451;48.638;10.624;2024-01-07T07:15:17;2.40;;;1.35;;
44722;SDS011;30451;48.638;10.624;2024-01-07T07:17:43;2.65;;;1.27;;
44722;SDS011;30451;48.638;10.624;2024-01-07T07:20:09;2.78;;;1.42;;
44722;SDS011;30451;48.638;10.624;2024-01-07T07:22:35;2.22;;;1.33;;
44722;SDS011;30451;48.638;10.624;2024-01-07T07:25:00;2.53;;;1.30;;
44722;SDS011;30451;48.638;10.624;2024-01-07T07:27:27;2.30;;;1.25;;
44722;SDS011;30451;48.638;10.624;2024-01-07T07:29:52;2.42;;;1.50;;
44722;SDS011;30451;48.638;10.624;2024-01-07T07:32:18;2.08;;;1.30;;
44722;SDS011;30451;48.638;10.624;2024-01-07T07:34:44;2.92;;;1.60;;
44722;SDS011;30451;48.638;10.624;2024-01-07T07:37:09;2.40;;;1.38;;
44722;SDS011;30451;48.638;10.624;2024-01-07T07:39:35;2.40;;;1.45;;
44722;SDS011;30451;48.638;10.624;2024-01-07T07:42:01;3.00;;;1.50;;
44722;SDS011;30451;48.638;10.624;2024-01-07T07:44:26;2.70;;;1.30;;
44722;SDS011;30451;48.638;10.624;2024-01-07T07:46:52;2.33;;;1.33;;
44722;SDS011;30451;48.638;10.624;2024-01-07T07:49:17;2.10;;;1.20;;
44722;SDS011;30451;48.638;10.624;2024-01-07T07:51:43;1.75;;;1.23;;
44722;SDS011;30451;48.638;10.624;2024-01-07T07:54:09;2.40;;;1.20;;
44722;SDS011;30451;48.638;10.624;2024-01-07T07:56:34;2.33;;;1.42;;
44722;SDS011;30451;48.638;10.624;2024-01-07T07:59:01;2.50;;;1.50;;
44722;SDS011;30451;48.638;10.624;2024-01-07T08:01:27;2.05;;;1.13;;
44722;SDS011;30451;48.638;10.624;2024-01-07T08:03:53;2.40;;;1.30;;
44722;SDS011;30451;48.638;10.624;2024-01-07T08:06:18;1.85;;;1.20;;
44722;SDS011;30451;48.638;10.624;2024-01-07T08:08:44;2.58;;;1.42;;
44722;SDS011;30451;48.638;10.624;2024-01-07T08:11:10;2.78;;;1.38;;
44722;SDS011;30451;48.638;10.624;2024-01-07T08:13:36;2.63;;;1.40;;
44722;SDS011;30451;48.638;10.624;2024-01-07T08:16:03;3.35;;;1.30;;
44722;SDS011;30451;48.638;10.624;2024-01-07T08:18:29;2.15;;;1.27;;
44722;SDS011;30451;48.638;10.624;2024-01-07T08:20:54;2.90;;;1.40;;
44722;SDS011;30451;48.638;10.624;2024-01-07T08:23:20;2.58;;;1.45;;
44722;SDS011;30451;48.638;10.624;2024-01-07T08:25:46;1.98;;;1.10;;
44722;SDS011;30451;48.638;10.624;2024-01-07T08:28:12;2.30;;;1.30;;
44722;SDS011;30451;48.638;10.624;2024-01-07T08:30:37;2.80;;;1.45;;
44722;SDS011;30451;48.638;10.624;2024-01-07T08:33:03;2.70;;;1.60;;
44722;SDS011;30451;48.638;10.624;2024-01-07T08:35:29;2.28;;;1.33;;
44722;SDS011;30451;48.638;10.624;2024-01-07T08:37:54;2.67;;;1.63;;
44722;SDS011;30451;48.638;10.624;2024-01-07T08:40:20;1.80;;;1.10;;
44722;SDS011;30451;48.638;10.624;2024-01-07T08:42:45;2.42;;;1.20;;
44722;SDS011;30451;48.638;10.624;2024-01-07T08:45:11;3.60;;;1.20;;
44722;SDS011;30451;48.638;10.624;2024-01-07T08:47:37;2.42;;;1.42;;
44722;SDS011;30451;48.638;10.624;2024-01-07T08:50:02;2.30;;;1.38;;
44722;SDS011;30451;48.638;10.624;2024-01-07T08:52:28;2.60;;;1.35;;
44722;SDS011;30451;48.638;10.624;2024-01-07T08:54:54;2.53;;;1.35;;
44722;SDS011;30451;48.638;10.624;2024-01-07T08:57:20;2.25;;;1.30;;
44722;SDS011;30451;48.638;10.624;2024-01-07T08:59:45;2.05;;;1.30;;
44722;SDS011;30451;48.638;10.624;2024-01-07T09:02:11;2.17;;;1.20;;
44722;SDS011;30451;48.638;10.624;2024-01-07T09:04:38;2.90;;;1.42;;
44722;SDS011;30451;48.638;10.624;2024-01-07T09:07:04;2.53;;;1.42;;
44722;SDS011;30451;48.638;10.624;2024-01-07T09:09:29;2.55;;;1.40;;
44722;SDS011;30451;48.638;10.624;2024-01-07T09:11:55;2.45;;;1.42;;
44722;SDS011;30451;48.638;10.624;2024-01-07T09:14:22;2.10;;;1.30;;
44722;SDS011;30451;48.638;10.624;2024-01-07T09:16:50;2.70;;;1.50;;
44722;SDS011;30451;48.638;10.624;2024-01-07T09:19:15;3.20;;;1.50;;
44722;SDS011;30451;48.638;10.624;2024-01-07T09:21:42;2.42;;;1.50;;
44722;SDS011;30451;48.638;10.624;2024-01-07T09:24:08;1.95;;;1.10;;
44722;SDS011;30451;48.638;10.624;2024-01-07T09:26:34;2.03;;;1.15;;
44722;SDS011;30451;48.638;10.624;2024-01-07T09:29:00;2.20;;;1.30;;
44722;SDS011;30451;48.638;10.624;2024-01-07T09:31:26;2.67;;;1.35;;
44722;SDS011;30451;48.638;10.624;2024-01-07T09:33:52;2.58;;;1.33;;
44722;SDS011;30451;48.638;10.624;2024-01-07T09:36:17;2.53;;;1.30;;
44722;SDS011;30451;48.638;10.624;2024-01-07T09:38:43;2.17;;;1.23;;
44722;SDS011;30451;48.638;10.624;2024-01-07T09:41:09;2.35;;;1.40;;
44722;SDS011;30451;48.638;10.624;2024-01-07T09:43:35;2.28;;;1.40;;
44722;SDS011;30451;48.638;10.624;2024-01-07T09:46:02;2.08;;;1.30;;
44722;SDS011;30451;48.638;10.624;2024-01-07T09:48:28;1.90;;;1.20;;
44722;SDS011;30451;48.638;10.624;2024-01-07T09:50:55;2.28;;;1.27;;
44722;SDS011;30451;48.638;10.624;2024-01-07T09:53:22;2.20;;;1.40;;
44722;SDS011;30451;48.638;10.624;2024-01-07T09:55:57;2.33;;;1.52;;
44722;SDS011;30451;48.638;10.624;2024-01-07T09:58:32;2.13;;;1.38;;
44722;SDS011;30451;48.638;10.624;2024-01-07T10:00:58;2.70;;;1.60;;
44722;SDS011;30451;48.638;10.624;2024-01-07T10:03:24;3.08;;;1.25;;
44722;SDS011;30451;48.638;10.624;2024-01-07T10:05:50;2.65;;;1.40;;
44722;SDS011;30451;48.638;10.624;2024-01-07T10:08:16;2.42;;;1.42;;
44722;SDS011;30451;48.638;10.624;2024-01-07T10:10:42;2.63;;;1.33;;
44722;SDS011;30451;48.638;10.624;2024-01-07T10:13:08;1.83;;;1.20;;
44722;SDS011;30451;48.638;10.624;2024-01-07T10:15:34;3.15;;;1.30;;
44722;SDS011;30451;48.638;10.624;2024-01-07T10:18:06;2.72;;;1.45;;
44722;SDS011;30451;48.638;10.624;2024-01-07T10:20:32;1.98;;;1.20;;
44722;SDS011;30451;48.638;10.624;2024-01-07T10:22:59;2.33;;;1.40;;
44722;SDS011;30451;48.638;10.624;2024-01-07T10:25:25;1.83;;;1.23;;
44722;SDS011;30451;48.638;10.624;2024-01-07T10:27:51;2.00;;;1.33;;
44722;SDS011;30451;48.638;10.624;2024-01-07T10:30:17;2.67;;;1.52;;
44722;SDS011;30451;48.638;10.624;2024-01-07T10:32:42;2.30;;;1.20;;
44722;SDS011;30451;48.638;10.624;2024-01-07T10:35:10;2.08;;;1.20;;
44722;SDS011;30451;48.638;10.624;2024-01-07T10:37:39;2.80;;;1.50;;
44722;SDS011;30451;48.638;10.624;2024-01-07T10:40:05;1.67;;;1.20;;
44722;SDS011;30451;48.638;10.624;2024-01-07T10:42:33;2.53;;;1.50;;
44722;SDS011;30451;48.638;10.624;2024-01-07T10:44:59;2.28;;;1.20;;
44722;SDS011;30451;48.638;10.624;2024-01-07T10:47:29;2.72;;;1.40;;
44722;SDS011;30451;48.638;10.624;2024-01-07T10:49:58;2.22;;;1.30;;
44722;SDS011;30451;48.638;10.624;2024-01-07T10:52:27;2.58;;;1.60;;
44722;SDS011;30451;48.638;10.624;2024-01-07T10:54:56;2.63;;;1.58;;
44722;SDS011;30451;48.638;10.624;2024-01-07T10:59:59;2.47;;;1.45;;
44722;SDS011;30451;48.638;10.624;2024-01-07T11:02:31;2.28;;;1.50;;
44722;SDS011;30451;48.638;10.624;2024-01-07T11:07:40;2.30;;;1.33;;
44722;SDS011;30451;48.638;10.624;2024-01-07T11:10:13;2.30;;;1.40;;
44722;SDS011;30451;48.638;10.624;2024-01-07T11:12:43;2.42;;;1.40;;
44722;SDS011;30451;48.638;10.624;2024-01-07T11:15:48;2.85;;;1.38;;
44722;SDS011;30451;48.638;10.624;2024-01-07T11:18:16;1.67;;;1.10;;
44722;SDS011;30451;48.638;10.624;2024-01-07T11:20:43;2.40;;;1.50;;
44722;SDS011;30451;48.638;10.624;2024-01-07T11:23:32;3.08;;;1.77;;
44722;SDS011;30451;48.638;10.624;2024-01-07T11:26:02;2.53;;;1.33;;
44722;SDS011;30451;48.638;10.624;2024-01-07T11:31:16;2.33;;;1.38;;
44722;SDS011;30451;48.638;10.624;2024-01-07T11:33:47;2.95;;;1.40;;
44722;SDS011;30451;48.638;10.624;2024-01-07T11:36:15;2.33;;;1.58;;
44722;SDS011;30451;48.638;10.624;2024-01-07T11:38:50;2.42;;;1.55;;
44722;SDS011;30451;48.638;10.624;2024-01-07T11:41:16;2.10;;;1.40;;
44722;SDS011;30451;48.638;10.624;2024-01-07T11:46:19;3.00;;;1.70;;
44722;SDS011;30451;48.638;10.624;2024-01-07T11:48:45;2.63;;;1.40;;
44722;SDS011;30451;48.638;10.624;2024-01-07T11:51:11;2.47;;;1.50;;
44722;SDS011;30451;48.638;10.624;2024-01-07T11:53:37;2.63;;;1.40;;
44722;SDS011;30451;48.638;10.624;2024-01-07T11:56:02;2.90;;;1.60;;
44722;SDS011;30451;48.638;10.624;2024-01-07T11:58:29;2.90;;;1.55;;
44722;SDS011;30451;48.638;10.624;2024-01-07T12:00:55;2.95;;;1.70;;
44722;SDS011;30451;48.638;10.624;2024-01-07T12:03:25;2.38;;;1.60;;
44722;SDS011;30451;48.638;10.624;2024-01-07T12:05:51;2.90;;;1.70;;
44722;SDS011;30451;48.638;10.624;2024-01-07T12:08:16;3.15;;;1.52;;
44722;SDS011;30451;48.638;10.624;2024-01-07T12:10:42;3.30;;;1.80;;
44722;SDS011;30451;48.638;10.624;2024-01-07T12:13:08;2.85;;;1.67;;
44722;SDS011;30451;48.638;10.624;2024-01-07T12:15:36;2.88;;;1.67;;
44722;SDS011;30451;48.638;10.624;2024-01-07T12:18:02;2.97;;;1.70;;
44722;SDS011;30451;48.638;10.624;2024-01-07T12:20:29;2.70;;;1.60;;
44722;SDS011;30451;48.638;10.624;2024-01-07T12:22:55;4.35;;;1.80;;
44722;SDS011;30451;48.638;10.624;2024-01-07T12:25:22;3.35;;;1.90;;
44722;SDS011;30451;48.638;10.624;2024-01-07T12:27:51;3.05;;;2.00;;
44722;SDS011;30451;48.638;10.624;2024-01-07T12:30:20;3.90;;;2.00;;
44722;SDS011;30451;48.638;10.624;2024-01-07T12:32:46;3.58;;;2.10;;
44722;SDS011;30451;48.638;10.624;2024-01-07T12:35:12;3.30;;;2.10;;
44722;SDS011;30451;48.638;10.624;2024-01-07T12:37:37;3.38;;;2.20;;
44722;SDS011;30451;48.638;10.624;2024-01-07T12:40:03;3.78;;;2.40;;
44722;SDS011;30451;48.638;10.624;2024-01-07T12:42:29;4.00;;;2.20;;
44722;SDS011;30451;48.638;10.624;2024-01-07T12:44:55;3.67;;;2.10;;
44722;SDS011;30451;48.638;10.624;2024-01-07T12:47:21;3.95;;;2.30;;
44722;SDS011;30451;48.638;10.624;2024-01-07T12:49:46;3.63;;;2.13;;
44722;SDS011;30451;48.638;10.624;2024-01-07T12:52:12;3.42;;;1.90;;
44722;SDS011;30451;48.638;10.624;2024-01-07T12:54:38;3.70;;;1.98;;
44722;SDS011;30451;48.638;10.624;2024-01-07T12:57:04;2.80;;;1.70;;
44722;SDS011;30451;48.638;10.624;2024-01-07T12:59:30;3.20;;;1.80;;
44722;SDS011;30451;48.638;10.624;2024-01-07T13:01:56;3.20;;;1.90;;
44722;SDS011;30451;48.638;10.624;2024-01-07T13:04:22;3.28;;;1.70;;
44722;SDS011;30451;48.638;10.624;2024-01-07T13:06:47;3.08;;;1.70;;
44722;SDS011;30451;48.638;10.624;2024-01-07T13:09:13;2.50;;;1.40;;
44722;SDS011;30451;48.638;10.624;2024-01-07T13:11:39;2.53;;;1.50;;
44722;SDS011;30451;48.638;10.624;2024-01-07T13:14:04;2.50;;;1.52;;
44722;SDS011;30451;48.638;10.624;2024-01-07T13:16:30;2.08;;;1.50;;
44722;SDS011;30451;48.638;10.624;2024-01-07T13:18:56;2.80;;;1.50;;
44722;SDS011;30451;48.638;10.624;2024-01-07T13:21:22;2.28;;;1.40;;
44722;SDS011;30451;48.638;10.624;2024-01-07T13:23:47;2.90;;;1.60;;
44722;SDS011;30451;48.638;10.624;2024-01-07T13:26:13;2.53;;;1.63;;
44722;SDS011;30451;48.638;10.624;2024-01-07T13:28:40;2.30;;;1.40;;
44722;SDS011;30451;48.638;10.624;2024-01-07T13:31:06;2.85;;;1.48;;
44722;SDS011;30451;48.638;10.624;2024-01-07T13:33:32;2.60;;;1.60;;
44722;SDS011;30451;48.638;10.624;2024-01-07T13:35:58;2.17;;;1.35;;
44722;SDS011;30451;48.638;10.624;2024-01-07T13:38:24;2.80;;;1.67;;
44722;SDS011;30451;48.638;10.624;2024-01-07T13:40:50;2.47;;;1.50;;
44722;SDS011;30451;48.638;10.624;2024-01-07T13:43:16;2.55;;;1.45;;
44722;SDS011;30451;48.638;10.624;2024-01-07T13:45:41;2.67;;;1.60;;
44722;SDS011;30451;48.638;10.624;2024-01-07T13:48:08;2.30;;;1.30;;
44722;SDS011;30451;48.638;10.624;2024-01-07T13:50:34;3.05;;;1.55;;
44722;SDS011;30451;48.638;10.624;2024-01-07T13:52:59;2.47;;;1.40;;
44722;SDS011;30451;48.638;10.624;2024-01-07T13:55:25;2.53;;;1.50;;
44722;SDS011;30451;48.638;10.624;2024-01-07T13:57:50;3.35;;;1.70;;
44722;SDS011;30451;48.638;10.624;2024-01-07T14:00:16;3.05;;;1.65;;
44722;SDS011;30451;48.638;10.624;2024-01-07T14:02:43;3.00;;;1.58;;
44722;SDS011;30451;48.638;10.624;2024-01-07T14:05:12;2.53;;;1.52;;
44722;SDS011;30451;48.638;10.624;2024-01-07T14:07:38;3.03;;;1.40;;
44722;SDS011;30451;48.638;10.624;2024-01-07T14:10:04;3.05;;;1.70;;
44722;SDS011;30451;48.638;10.624;2024-01-07T14:12:31;2.88;;;1.60;;
44722;SDS011;30451;48.638;10.624;2024-01-07T14:14:57;2.38;;;1.55;;
44722;SDS011;30451;48.638;10.624;2024-01-07T14:17:24;3.15;;;1.60;;
44722;SDS011;30451;48.638;10.624;2024-01-07T14:19:50;2.67;;;1.42;;
44722;SDS011;30451;48.638;10.624;2024-01-07T14:22:18;2.17;;;1.42;;
44722;SDS011;30451;48.638;10.624;2024-01-07T14:24:47;2.65;;;1.40;;
44722;SDS011;30451;48.638;10.624;2024-01-07T14:27:14;3.55;;;1.55;;
44722;SDS011;30451;48.638;10.624;2024-01-07T14:29:40;2.85;;;1.60;;
44722;SDS011;30451;48.638;10.624;2024-01-07T14:32:06;2.10;;;1.50;;
44722;SDS011;30451;48.638;10.624;2024-01-07T14:34:32;2.55;;;1.50;;
44722;SDS011;30451;48.638;10.624;2024-01-07T14:36:57;2.80;;;1.60;;
44722;SDS011;30451;48.638;10.624;2024-01-07T14:39:23;2.50;;;1.52;;